createdAt,value
2023-02-16T00:02:57.056Z,6.50
2023-02-16T00:07:00.103Z,6.50
2023-02-16T00:11:21.514Z,6.40
2023-02-16T00:15:24.648Z,6.30
2023-02-16T00:19:36.083Z,6.30
2023-02-16T00:23:39.026Z,6.20
2023-02-16T00:27:41.960Z,6.10
2023-02-16T00:31:45.323Z,6.10
2023-02-16T00:35:48.897Z,6.10
2023-02-16T00:39:52.257Z,6.10
2023-02-16T00:43:55.858Z,6.10
2023-02-16T00:47:58.589Z,6.10
2023-02-16T00:52:01.958Z,6.20
2023-02-16T00:56:05.267Z,6.20
2023-02-16T01:00:41.515Z,6.40
2023-02-16T01:04:44.508Z,6.40
2023-02-16T01:09:05.757Z,6.30
2023-02-16T01:13:10.478Z,6.20
2023-02-16T01:17:13.221Z,6.30
2023-02-16T01:21:16.151Z,6.30
2023-02-16T01:25:19.007Z,6.20
2023-02-16T01:29:22.451Z,6.10
2023-02-16T01:33:25.681Z,6.10
2023-02-16T01:37:28.952Z,6.00
2023-02-16T01:41:56.781Z,5.80
2023-02-16T01:46:17.192Z,5.60
2023-02-16T01:50:25.601Z,5.50
2023-02-16T01:54:52.945Z,5.30
2023-02-16T01:59:00.722Z,5.40
2023-02-16T02:03:30.973Z,5.40
2023-02-16T02:08:07.690Z,5.50
2023-02-16T02:12:20.870Z,5.50
2023-02-16T02:16:25.825Z,5.50
2023-02-16T02:21:16.138Z,5.40
2023-02-16T02:25:25.438Z,5.40
2023-02-16T02:30:00.568Z,5.40
2023-02-16T02:34:28.486Z,5.30
2023-02-16T02:38:45.834Z,5.30
2023-02-16T02:42:52.878Z,5.20
2023-02-16T02:46:56.918Z,5.10
2023-02-16T02:51:27.459Z,5.20
2023-02-16T02:55:58.718Z,5.30
2023-02-16T03:00:41.507Z,5.20
2023-02-16T03:04:47.027Z,5.20
2023-02-16T03:08:56.323Z,5.10
2023-02-16T03:13:01.691Z,5.10
2023-02-16T03:17:31.451Z,5.00
2023-02-16T03:21:54.062Z,5.00
2023-02-16T03:26:16.095Z,5.00
2023-02-16T03:30:20.980Z,5.00
2023-02-16T03:34:25.206Z,4.80
2023-02-16T03:38:28.876Z,4.80
2023-02-16T03:42:33.526Z,4.80
2023-02-16T03:46:36.398Z,4.70
2023-02-16T03:50:39.295Z,4.70
2023-02-16T03:54:42.116Z,4.70
2023-02-16T03:58:44.923Z,4.60
2023-02-16T04:02:50.727Z,4.70
2023-02-16T04:06:53.602Z,4.70
2023-02-16T04:10:57.518Z,4.60
2023-02-16T04:15:00.332Z,4.50
2023-02-16T04:19:03.188Z,4.50
2023-02-16T04:23:06.629Z,4.40
2023-02-16T04:27:09.429Z,4.20
2023-02-16T04:31:12.541Z,4.20
2023-02-16T04:35:16.141Z,4.10
2023-02-16T04:39:19.187Z,4.10
2023-02-16T04:43:21.886Z,4.10
2023-02-16T04:47:26.937Z,4.10
2023-02-16T04:51:29.637Z,4.10
2023-02-16T04:55:32.598Z,4.10
2023-02-16T04:59:35.558Z,4.10
2023-02-16T05:03:38.360Z,4.10
2023-02-16T05:07:41.216Z,4.00
2023-02-16T05:12:02.414Z,3.90
2023-02-16T05:16:05.524Z,3.80
2023-02-16T05:20:08.918Z,3.60
2023-02-16T05:24:12.209Z,3.60
2023-02-16T05:28:15.139Z,3.50
2023-02-16T05:32:18.537Z,3.50
2023-02-16T05:36:22.415Z,3.40
2023-02-16T05:40:25.201Z,3.30
2023-02-16T05:44:28.045Z,3.20
2023-02-16T05:48:31.097Z,3.10
2023-02-16T05:52:33.940Z,3.10
2023-02-16T05:56:37.371Z,3.10
2023-02-16T06:00:40.248Z,3.10
2023-02-16T06:04:43.036Z,3.00
2023-02-16T06:08:45.901Z,3.00
2023-02-16T06:12:48.911Z,3.10
2023-02-16T06:16:51.924Z,3.10
2023-02-16T06:21:00.030Z,3.10
2023-02-16T06:25:04.212Z,3.10
2023-02-16T06:29:07.138Z,3.00
2023-02-16T06:33:09.881Z,2.90
2023-02-16T06:37:12.683Z,2.80
2023-02-16T06:41:31.957Z,2.80
2023-02-16T06:45:34.939Z,2.80
2023-02-16T06:49:37.705Z,2.80
2023-02-16T06:53:40.791Z,2.80
2023-02-16T06:57:43.638Z,2.80
2023-02-16T07:01:46.441Z,2.80
2023-02-16T07:05:50.224Z,2.80
2023-02-16T07:09:53.156Z,2.90
2023-02-16T07:13:56.207Z,2.90
2023-02-16T07:17:59.214Z,2.90
2023-02-16T07:22:02.861Z,3.00
2023-02-16T07:26:05.879Z,3.20
2023-02-16T07:30:11.621Z,3.50
2023-02-16T07:34:18.178Z,3.60
2023-02-16T07:38:22.013Z,4.00
2023-02-16T07:42:24.665Z,4.00
2023-02-16T07:46:31.003Z,4.10
2023-02-16T07:50:36.675Z,4.20
2023-02-16T07:54:39.733Z,4.40
2023-02-16T07:58:42.517Z,4.60
2023-02-16T08:02:45.398Z,4.90
2023-02-16T08:06:48.763Z,5.10
2023-02-16T08:10:51.639Z,5.30
2023-02-16T08:14:54.437Z,5.40
2023-02-16T08:19:00.117Z,5.50
2023-02-16T08:23:02.945Z,5.70
2023-02-16T08:27:06.354Z,6.00
2023-02-16T08:31:10.250Z,6.30
2023-02-16T08:35:13.632Z,6.50
2023-02-16T08:39:20.022Z,6.80
2023-02-16T08:43:22.878Z,7.00
2023-02-16T08:47:25.917Z,7.00
2023-02-16T08:51:34.871Z,7.10
2023-02-16T08:55:38.509Z,7.40
2023-02-16T08:59:41.326Z,7.70
2023-02-16T09:03:46.322Z,8.00
2023-02-16T09:07:49.961Z,8.40
2023-02-16T09:11:52.919Z,8.60
2023-02-16T09:15:55.821Z,8.70
2023-02-16T09:19:58.483Z,9.00
2023-02-16T09:24:04.564Z,9.30
2023-02-16T09:28:09.648Z,9.60
2023-02-16T09:32:14.920Z,9.80
2023-02-16T09:36:18.383Z,9.80
2023-02-16T09:40:21.322Z,9.90
2023-02-16T09:44:55.276Z,9.80
2023-02-16T09:49:01.487Z,9.80
2023-02-16T09:53:30.297Z,9.90
2023-02-16T09:58:05.752Z,10.10
2023-02-16T10:02:32.749Z,10.30
2023-02-16T10:07:14.384Z,10.60
2023-02-16T10:11:46.806Z,10.80
2023-02-16T10:15:52.992Z,11.00
2023-02-16T10:20:13.637Z,11.00
2023-02-16T10:24:16.565Z,11.10
2023-02-16T10:28:38.174Z,11.20
2023-02-16T10:32:56.843Z,11.50
2023-02-16T10:37:27.513Z,11.60
2023-02-16T10:41:44.583Z,11.80
2023-02-16T10:45:52.543Z,11.70
2023-02-16T10:49:56.292Z,11.80
2023-02-16T10:54:10.415Z,11.80
2023-02-16T10:58:22.720Z,11.90
2023-02-16T11:02:29.062Z,12.00
2023-02-16T11:06:32.112Z,12.00
2023-02-16T11:10:50.487Z,12.00
2023-02-16T11:15:21.857Z,12.20
2023-02-16T11:19:25.998Z,12.30
2023-02-16T11:23:31.097Z,12.40
2023-02-16T11:27:33.803Z,12.50
2023-02-16T11:31:40.768Z,12.50
2023-02-16T11:35:44.936Z,12.50
2023-02-16T11:39:55.291Z,12.60
2023-02-16T11:43:58.398Z,12.80
2023-02-16T11:48:24.788Z,12.80
2023-02-16T11:52:30.713Z,12.60
2023-02-16T11:56:35.049Z,12.40
2023-02-16T12:00:38.308Z,12.30
2023-02-16T12:04:47.206Z,12.20
2023-02-16T12:09:06.338Z,12.20
2023-02-16T12:13:25.754Z,11.90
2023-02-16T12:18:11.892Z,11.90
2023-02-16T12:22:38.756Z,12.00
2023-02-16T12:27:02.823Z,12.10
2023-02-16T12:31:17.206Z,12.10
2023-02-16T12:36:04.481Z,12.00
2023-02-16T12:40:20.289Z,11.90
2023-02-16T12:44:37.472Z,11.90
2023-02-16T12:48:56.082Z,11.60
2023-02-16T12:53:14.168Z,11.40
2023-02-16T12:57:23.073Z,11.30
2023-02-16T13:01:33.827Z,11.20
2023-02-16T13:05:38.113Z,11.30
2023-02-16T13:09:55.386Z,11.30
2023-02-16T13:14:04.447Z,11.30
2023-02-16T13:18:23.982Z,11.20
2023-02-16T13:22:32.861Z,11.10
2023-02-16T13:27:03.513Z,11.10
2023-02-16T13:31:35.468Z,11.10
2023-02-16T13:35:53.591Z,11.10
2023-02-16T13:40:14.880Z,11.20
2023-02-16T13:44:26.098Z,11.20
2023-02-16T13:48:47.752Z,11.20
2023-02-16T13:52:53.059Z,11.20
2023-02-16T13:56:56.148Z,11.10
2023-02-16T14:00:59.252Z,11.20
2023-02-16T14:05:10.015Z,11.30
2023-02-16T14:09:16.096Z,11.50
2023-02-16T14:13:28.729Z,11.50
2023-02-16T14:17:35.872Z,11.60
2023-02-16T14:21:44.177Z,11.60
2023-02-16T14:25:47.019Z,11.60
2023-02-16T14:29:59.508Z,11.60
2023-02-16T14:34:19.610Z,11.60
2023-02-16T14:38:40.771Z,11.60
2023-02-16T14:42:55.466Z,11.50
2023-02-16T14:47:47.339Z,11.40
2023-02-16T14:52:24.315Z,11.30
2023-02-16T14:56:37.210Z,11.10
2023-02-16T15:00:53.890Z,11.00
2023-02-16T15:04:57.186Z,10.80
2023-02-16T15:09:02.905Z,10.60
2023-02-16T15:13:06.140Z,10.60
2023-02-16T15:17:10.567Z,10.60
2023-02-16T15:21:31.582Z,10.50
2023-02-16T15:25:39.807Z,10.70
2023-02-16T15:29:42.487Z,10.60
2023-02-16T15:33:58.779Z,10.60
2023-02-16T15:38:06.494Z,10.60
2023-02-16T15:42:15.715Z,10.60
2023-02-16T15:46:38.058Z,10.60
2023-02-16T15:50:42.830Z,10.50
2023-02-16T15:54:48.633Z,10.40
2023-02-16T15:58:54.890Z,10.30
2023-02-16T16:03:00.841Z,10.40
2023-02-16T16:07:05.985Z,10.40
2023-02-16T16:11:09.168Z,10.40
2023-02-16T16:15:19.548Z,10.30
2023-02-16T16:19:42.733Z,10.30
2023-02-16T16:24:04.725Z,10.30
2023-02-16T16:28:14.098Z,10.30
2023-02-16T16:32:27.793Z,10.30
2023-02-16T16:36:37.531Z,10.30
2023-02-16T16:40:40.572Z,10.40
2023-02-16T16:45:07.029Z,10.30
2023-02-16T16:49:16.455Z,10.30
2023-02-16T16:53:41.637Z,10.30
2023-02-16T16:57:44.984Z,10.30
2023-02-16T17:01:50.863Z,10.30
2023-02-16T17:05:54.196Z,10.20
2023-02-16T17:09:57.613Z,10.10
2023-02-16T17:14:14.654Z,10.10
2023-02-16T17:18:21.471Z,10.10
2023-02-16T17:22:24.174Z,10.00
2023-02-16T17:26:27.420Z,10.00
2023-02-16T17:30:31.238Z,9.90
2023-02-16T17:34:35.260Z,9.90
2023-02-16T17:38:38.016Z,9.90
2023-02-16T17:42:41.796Z,9.90
2023-02-16T17:46:46.290Z,10.00
2023-02-16T17:50:51.918Z,10.00
2023-02-16T17:54:55.086Z,10.00
2023-02-16T17:58:58.175Z,10.00
2023-02-16T18:03:00.972Z,9.90
2023-02-16T18:07:03.678Z,10.00
2023-02-16T18:11:06.777Z,10.00
2023-02-16T18:15:10.431Z,10.00
2023-02-16T18:19:14.923Z,10.00
2023-02-16T18:23:17.734Z,9.90
2023-02-16T18:27:21.641Z,9.90
2023-02-16T18:31:24.510Z,9.90
2023-02-16T18:35:27.617Z,9.90
2023-02-16T18:39:31.473Z,9.90
2023-02-16T18:43:35.869Z,9.90
2023-02-16T18:47:39.186Z,9.90
2023-02-16T18:51:42.051Z,9.90
2023-02-16T18:55:44.837Z,9.90
2023-02-16T18:59:47.992Z,9.90
2023-02-16T19:03:50.719Z,9.90
2023-02-16T19:07:53.453Z,9.90
2023-02-16T19:11:56.544Z,9.90
2023-02-16T19:15:59.300Z,9.90
2023-02-16T19:20:02.292Z,9.80
2023-02-16T19:24:05.873Z,9.80
2023-02-16T19:28:09.316Z,9.80
2023-02-16T19:32:11.993Z,9.80
2023-02-16T19:36:15.806Z,9.80
2023-02-16T19:40:18.800Z,9.70
2023-02-16T19:44:21.986Z,9.70
2023-02-16T19:48:24.661Z,9.70
2023-02-16T19:52:27.382Z,9.70
2023-02-16T19:56:30.256Z,9.60
2023-02-16T20:00:33.049Z,9.70
2023-02-16T20:04:35.866Z,9.70
2023-02-16T20:08:38.723Z,9.70
2023-02-16T20:12:41.733Z,9.70
2023-02-16T20:16:45.220Z,9.70
2023-02-16T20:20:59.475Z,9.80
2023-02-16T20:25:02.741Z,9.80
2023-02-16T20:29:07.460Z,9.80
2023-02-16T20:33:10.358Z,9.80
2023-02-16T20:37:13.279Z,9.80
2023-02-16T20:41:19.328Z,9.90
2023-02-16T20:45:22.296Z,9.90
2023-02-16T20:49:25.460Z,10.00
2023-02-16T20:53:29.695Z,10.00
2023-02-16T20:57:35.105Z,10.00
2023-02-16T21:01:41.683Z,10.00
2023-02-16T21:05:44.758Z,9.90
2023-02-16T21:09:48.495Z,9.80
2023-02-16T21:13:51.864Z,9.80
2023-02-16T21:17:55.022Z,9.80
2023-02-16T21:21:57.982Z,9.80
2023-02-16T21:26:02.691Z,9.90
2023-02-16T21:30:06.676Z,9.80
2023-02-16T21:34:11.661Z,9.80
2023-02-16T21:38:15.211Z,9.80
2023-02-16T21:42:18.538Z,9.80
2023-02-16T21:46:21.819Z,9.80
2023-02-16T21:50:25.310Z,9.80
2023-02-16T21:54:48.209Z,9.80
2023-02-16T21:58:51.247Z,9.80
2023-02-16T22:02:54.927Z,9.70
2023-02-16T22:06:58.151Z,9.70
2023-02-16T22:11:09.345Z,9.80
2023-02-16T22:15:12.104Z,9.70
2023-02-16T22:19:17.142Z,9.60
2023-02-16T22:23:20.005Z,9.60
2023-02-16T22:27:22.867Z,9.70
2023-02-16T22:31:27.257Z,9.70
2023-02-16T22:35:30.141Z,9.70
2023-02-16T22:39:33.084Z,9.80
2023-02-16T22:43:36.364Z,9.80
2023-02-16T22:47:42.670Z,9.80
2023-02-16T22:51:47.555Z,9.70
2023-02-16T22:55:50.245Z,9.60
2023-02-16T22:59:53.556Z,9.60
2023-02-16T23:03:57.974Z,9.70
2023-02-16T23:08:00.906Z,9.70
2023-02-16T23:12:03.811Z,9.60
2023-02-16T23:16:10.774Z,9.60
2023-02-16T23:20:13.603Z,9.60
2023-02-16T23:24:19.879Z,9.50
2023-02-16T23:28:22.686Z,9.50
2023-02-16T23:32:25.562Z,9.50
2023-02-16T23:36:28.389Z,9.40
2023-02-16T23:40:31.184Z,9.40
2023-02-16T23:44:35.650Z,9.40
2023-02-16T23:48:41.353Z,9.30
2023-02-16T23:52:45.070Z,9.30
2023-02-16T23:56:47.799Z,9.30
